createdAt,value
2017-10-21T00:00:31.391Z,99.99
2017-10-21T00:01:31.716Z,99.99
2017-10-21T00:02:31.713Z,99.99
2017-10-21T00:03:31.395Z,99.99
2017-10-21T00:04:31.389Z,99.99
2017-10-21T00:05:31.714Z,99.99
2017-10-21T00:06:31.410Z,99.96
2017-10-21T00:07:31.722Z,99.86
2017-10-21T00:08:31.720Z,99.76
2017-10-21T00:09:31.709Z,99.86
2017-10-21T00:10:31.707Z,99.38
2017-10-21T00:11:31.730Z,99.99
2017-10-21T00:12:31.709Z,99.99
2017-10-21T00:13:31.717Z,99.99
2017-10-21T00:14:31.731Z,99.99
2017-10-21T00:15:31.720Z,99.99
2017-10-21T00:16:31.395Z,99.99
2017-10-21T00:17:31.719Z,99.99
2017-10-21T00:18:31.715Z,99.99
2017-10-21T00:19:31.399Z,99.99
2017-10-21T00:20:31.398Z,99.99
2017-10-21T00:21:31.716Z,99.99
2017-10-21T00:22:31.716Z,99.99
2017-10-21T00:23:31.705Z,99.99
2017-10-21T00:24:31.706Z,99.99
2017-10-21T00:25:31.701Z,99.99
2017-10-21T00:26:31.698Z,99.99
2017-10-21T00:27:31.710Z,99.99
2017-10-21T00:28:31.723Z,99.99
2017-10-21T00:29:31.702Z,99.99
2017-10-21T00:30:31.383Z,99.99
2017-10-21T00:31:31.379Z,99.99
2017-10-21T00:32:31.708Z,99.99
2017-10-21T00:33:31.376Z,99.99
2017-10-21T00:34:31.700Z,99.99
2017-10-21T00:35:31.700Z,99.99
2017-10-21T00:36:31.376Z,99.99
2017-10-21T00:37:31.688Z,99.99
2017-10-21T00:38:31.372Z,99.99
2017-10-21T00:39:31.367Z,99.99
2017-10-21T00:40:31.694Z,99.99
2017-10-21T00:41:31.365Z,99.99
2017-10-21T00:42:31.696Z,99.99
2017-10-21T00:43:31.363Z,99.99
2017-10-21T00:44:31.690Z,99.99
2017-10-21T00:45:31.935Z,99.99
2017-10-21T00:46:31.700Z,99.99
2017-10-21T00:47:31.690Z,99.99
2017-10-21T00:48:31.695Z,99.99
2017-10-21T00:49:31.695Z,99.99
2017-10-21T00:50:31.364Z,99.99
2017-10-21T00:51:31.359Z,99.99
2017-10-21T00:52:31.687Z,99.99
2017-10-21T00:53:31.687Z,99.99
2017-10-21T00:54:31.705Z,99.99
2017-10-21T00:55:31.694Z,99.99
2017-10-21T00:56:31.688Z,99.99
2017-10-21T00:57:31.681Z,99.99
2017-10-21T00:58:31.678Z,99.99
2017-10-21T00:59:31.691Z,99.99
2017-10-21T01:00:31.872Z,99.99
2017-10-21T01:01:31.356Z,99.99
2017-10-21T01:02:31.681Z,99.99
2017-10-21T01:03:31.687Z,99.99
2017-10-21T01:04:31.676Z,99.99
2017-10-21T01:05:31.688Z,99.99
2017-10-21T01:06:31.347Z,99.99
2017-10-21T01:07:31.691Z,99.99
2017-10-21T01:08:31.681Z,99.99
2017-10-21T01:09:31.675Z,99.99
2017-10-21T01:10:31.684Z,99.99
2017-10-21T01:11:31.342Z,99.99
2017-10-21T01:12:31.691Z,99.99
2017-10-21T01:13:31.684Z,99.99
2017-10-21T01:14:31.672Z,99.99
2017-10-21T01:15:35.612Z,99.99
2017-10-21T01:16:31.680Z,99.99
2017-10-21T01:17:31.671Z,99.99
2017-10-21T01:18:31.680Z,99.99
2017-10-21T01:19:31.682Z,99.99
2017-10-21T01:20:31.654Z,99.99
2017-10-21T01:21:31.660Z,99.99
2017-10-21T01:22:31.698Z,99.99
2017-10-21T01:23:31.674Z,99.99
2017-10-21T01:24:31.680Z,99.99
2017-10-21T01:25:31.662Z,99.99
2017-10-21T01:26:31.663Z,99.99
2017-10-21T01:27:31.663Z,99.99
2017-10-21T01:28:31.666Z,99.99
2017-10-21T01:29:31.668Z,99.99
2017-10-21T01:30:31.678Z,99.99
2017-10-21T01:31:31.678Z,99.99
2017-10-21T01:32:31.324Z,99.99
2017-10-21T01:33:31.659Z,99.99
2017-10-21T01:34:31.669Z,99.99
2017-10-21T01:35:31.660Z,99.99
2017-10-21T01:36:31.651Z,99.99
2017-10-21T01:37:31.670Z,99.99
2017-10-21T01:38:31.654Z,99.99
2017-10-21T01:39:31.663Z,99.99
2017-10-21T01:40:31.316Z,99.99
2017-10-21T01:41:31.663Z,99.99
2017-10-21T01:42:31.651Z,99.99
2017-10-21T01:43:31.658Z,99.99
2017-10-21T01:44:31.313Z,99.99
2017-10-21T01:45:31.313Z,99.99
2017-10-21T01:46:31.675Z,99.99
2017-10-21T01:47:31.313Z,99.99
2017-10-21T01:48:31.310Z,99.99
2017-10-21T01:49:31.658Z,99.99
2017-10-21T01:50:31.646Z,99.99
2017-10-21T01:51:31.631Z,99.99
2017-10-21T01:52:31.656Z,99.99
2017-10-21T01:53:31.639Z,99.99
2017-10-21T01:54:31.639Z,99.99
2017-10-21T01:55:31.306Z,99.99
2017-10-21T01:56:31.312Z,99.99
2017-10-21T01:57:31.306Z,99.99
2017-10-21T01:58:31.649Z,99.99
2017-10-21T01:59:31.302Z,99.99
2017-10-21T02:00:31.644Z,99.99
2017-10-21T02:01:31.683Z,99.99
2017-10-21T02:02:31.648Z,99.99
2017-10-21T02:03:31.636Z,99.99
2017-10-21T02:04:31.299Z,99.99
2017-10-21T02:05:31.635Z,99.99
2017-10-21T02:06:31.298Z,99.99
2017-10-21T02:07:31.303Z,99.99
2017-10-21T02:08:31.640Z,99.99
2017-10-21T02:09:31.635Z,99.99
2017-10-21T02:10:31.627Z,99.99
2017-10-21T02:11:31.347Z,99.99
2017-10-21T02:12:31.291Z,99.99
2017-10-21T02:13:31.631Z,99.99
2017-10-21T02:14:31.622Z,99.99
2017-10-21T02:15:31.618Z,99.99
2017-10-21T02:16:32.288Z,99.99
2017-10-21T02:17:31.287Z,99.99
2017-10-21T02:18:31.287Z,99.99
2017-10-21T02:19:31.626Z,99.99
2017-10-21T02:20:31.288Z,99.99
2017-10-21T02:21:31.289Z,99.99
2017-10-21T02:22:31.280Z,99.99
2017-10-21T02:23:31.625Z,99.99
2017-10-21T02:24:31.357Z,99.99
2017-10-21T02:25:31.277Z,99.99
2017-10-21T02:26:31.643Z,99.99
2017-10-21T02:27:31.631Z,99.99
2017-10-21T02:28:31.605Z,99.99
2017-10-21T02:29:31.608Z,99.99
2017-10-21T02:30:31.641Z,99.99
2017-10-21T02:31:31.614Z,99.99
2017-10-21T02:32:31.615Z,99.99
2017-10-21T02:33:31.612Z,99.99
2017-10-21T02:34:31.614Z,99.99
2017-10-21T02:35:31.615Z,99.99
2017-10-21T02:36:31.618Z,99.99
2017-10-21T02:37:31.264Z,99.99
2017-10-21T02:38:31.262Z,99.99
2017-10-21T02:39:31.613Z,99.99
2017-10-21T02:40:31.599Z,99.99
2017-10-21T02:41:31.612Z,99.99
2017-10-21T02:42:31.256Z,99.99
2017-10-21T02:43:31.586Z,99.99
2017-10-21T02:44:31.612Z,99.99
2017-10-21T02:45:31.590Z,99.99
2017-10-21T02:46:31.936Z,99.99
2017-10-21T02:47:31.595Z,99.99
2017-10-21T02:48:31.617Z,99.99
2017-10-21T02:49:31.582Z,99.99
2017-10-21T02:50:31.605Z,99.99
2017-10-21T02:51:31.249Z,99.99
2017-10-21T02:52:31.619Z,99.99
2017-10-21T02:53:31.582Z,99.99
2017-10-21T02:54:31.582Z,99.99
2017-10-21T02:55:31.574Z,99.99
2017-10-21T02:56:31.599Z,99.99
2017-10-21T02:57:31.573Z,99.99
2017-10-21T02:58:31.574Z,99.99
2017-10-21T02:59:31.584Z,99.99
2017-10-21T03:00:31.566Z,99.99
2017-10-21T03:01:31.574Z,99.99
2017-10-21T03:02:31.576Z,99.99
2017-10-21T03:03:31.564Z,99.99
2017-10-21T03:04:31.232Z,99.99
2017-10-21T03:05:31.576Z,99.99
2017-10-21T03:06:31.257Z,99.99
2017-10-21T03:07:31.231Z,99.99
2017-10-21T03:08:31.553Z,99.99
2017-10-21T03:09:31.579Z,99.99
2017-10-21T03:10:31.555Z,99.99
2017-10-21T03:11:31.599Z,99.99
2017-10-21T03:12:31.571Z,99.99
2017-10-21T03:13:31.565Z,99.99
2017-10-21T03:14:31.560Z,99.99
2017-10-21T03:15:31.217Z,99.99
2017-10-21T03:16:31.549Z,99.99
2017-10-21T03:17:31.219Z,99.99
2017-10-21T03:18:31.539Z,99.99
2017-10-21T03:19:31.533Z,99.99
2017-10-21T03:20:31.213Z,99.99
2017-10-21T03:21:31.544Z,99.99
2017-10-21T03:22:31.538Z,99.99
2017-10-21T03:23:31.544Z,99.99
2017-10-21T03:24:31.552Z,99.99
2017-10-21T03:25:31.560Z,99.99
2017-10-21T03:26:31.518Z,99.99
2017-10-21T03:27:31.522Z,99.99
2017-10-21T03:28:31.518Z,99.99
2017-10-21T03:29:31.530Z,99.99
2017-10-21T03:30:31.192Z,99.99
2017-10-21T03:31:31.192Z,99.99
2017-10-21T03:32:31.511Z,99.99
2017-10-21T03:33:31.516Z,99.99
2017-10-21T03:34:31.523Z,99.99
2017-10-21T03:35:31.179Z,99.99
2017-10-21T03:36:31.518Z,99.99
2017-10-21T03:37:31.503Z,99.99
2017-10-21T03:38:31.510Z,99.99
2017-10-21T03:39:31.505Z,99.99
2017-10-21T03:40:31.512Z,99.99
2017-10-21T03:41:31.506Z,99.99
2017-10-21T03:42:31.179Z,99.99
2017-10-21T03:43:31.516Z,99.99
2017-10-21T03:44:31.172Z,99.99
2017-10-21T03:45:31.501Z,99.99
2017-10-21T03:46:31.495Z,99.99
2017-10-21T03:47:34.886Z,99.99
2017-10-21T03:48:31.496Z,99.99
2017-10-21T03:49:31.489Z,99.99
2017-10-21T03:50:31.493Z,99.99
2017-10-21T03:51:31.487Z,99.99
2017-10-21T03:52:31.488Z,99.99
2017-10-21T03:53:31.154Z,99.99
2017-10-21T03:54:31.482Z,99.99
2017-10-21T03:55:31.147Z,99.99
2017-10-21T03:56:31.146Z,99.99
2017-10-21T03:57:31.473Z,99.99
2017-10-21T03:58:31.465Z,99.99
2017-10-21T03:59:31.462Z,99.99
2017-10-21T04:00:31.461Z,99.99
2017-10-21T04:01:31.139Z,99.99
2017-10-21T04:02:31.139Z,99.99
2017-10-21T04:03:31.462Z,99.99
2017-10-21T04:04:31.455Z,99.99
2017-10-21T04:05:31.460Z,99.99
2017-10-21T04:06:31.454Z,99.99
2017-10-21T04:07:31.455Z,99.99
2017-10-21T04:08:31.459Z,99.99
2017-10-21T04:09:31.448Z,99.99
2017-10-21T04:10:31.451Z,99.99
2017-10-21T04:11:31.123Z,99.99
2017-10-21T04:12:31.446Z,99.99
2017-10-21T04:13:31.453Z,99.99
2017-10-21T04:14:31.440Z,99.99
2017-10-21T04:15:31.119Z,99.99
2017-10-21T04:16:31.444Z,99.99
2017-10-21T04:17:31.434Z,99.99
2017-10-21T04:18:31.439Z,99.99
2017-10-21T04:19:31.452Z,99.99
2017-10-21T04:20:31.430Z,99.99
2017-10-21T04:21:31.108Z,99.99
2017-10-21T04:22:31.107Z,99.99
2017-10-21T04:23:31.430Z,99.99
2017-10-21T04:24:31.109Z,99.99
2017-10-21T04:25:31.431Z,99.99
2017-10-21T04:26:31.431Z,99.99
2017-10-21T04:27:31.101Z,99.99
2017-10-21T04:28:31.116Z,99.99
2017-10-21T04:29:31.426Z,99.99
2017-10-21T04:30:31.427Z,99.99
2017-10-21T04:31:31.429Z,99.99
2017-10-21T04:32:31.095Z,99.99
2017-10-21T04:33:31.097Z,99.99
2017-10-21T04:34:31.416Z,99.99
2017-10-21T04:35:31.411Z,99.99
2017-10-21T04:36:31.090Z,99.99
2017-10-21T04:37:31.090Z,99.99
2017-10-21T04:38:31.406Z,99.99
2017-10-21T04:39:31.413Z,99.99
2017-10-21T04:40:31.407Z,99.99
2017-10-21T04:41:31.085Z,99.99
2017-10-21T04:42:31.417Z,99.99
2017-10-21T04:43:31.411Z,99.99
2017-10-21T04:44:31.419Z,99.99
2017-10-21T04:45:31.084Z,99.99
2017-10-21T04:46:31.397Z,99.99
2017-10-21T04:47:31.399Z,99.99
2017-10-21T04:48:32.520Z,99.99
2017-10-21T04:49:31.399Z,99.99
2017-10-21T04:50:31.392Z,99.99
2017-10-21T04:51:31.392Z,99.99
2017-10-21T04:52:31.392Z,99.99
2017-10-21T04:53:31.397Z,99.99
2017-10-21T04:54:31.070Z,99.99
2017-10-21T04:55:31.398Z,99.99
2017-10-21T04:56:31.390Z,99.99
2017-10-21T04:57:31.391Z,99.99
2017-10-21T04:58:31.071Z,99.99
2017-10-21T04:59:31.394Z,99.99
2017-10-21T05:00:31.382Z,99.99
2017-10-21T05:01:31.382Z,99.99
2017-10-21T05:02:31.561Z,99.99
2017-10-21T05:03:31.392Z,99.99
2017-10-21T05:04:31.380Z,99.99
2017-10-21T05:05:31.055Z,99.99
2017-10-21T05:06:31.385Z,99.99
2017-10-21T05:07:31.387Z,99.99
2017-10-21T05:08:31.050Z,99.99
2017-10-21T05:09:31.368Z,99.99
2017-10-21T05:10:31.050Z,99.99
2017-10-21T05:11:31.367Z,99.99
2017-10-21T05:12:31.368Z,99.99
2017-10-21T05:13:31.368Z,99.99
2017-10-21T05:14:31.364Z,99.99
2017-10-21T05:15:31.363Z,99.99
2017-10-21T05:16:31.361Z,99.99
2017-10-21T05:17:31.044Z,99.99
2017-10-21T05:18:34.013Z,99.99
2017-10-21T05:19:31.359Z,99.99
2017-10-21T05:20:31.368Z,99.99
2017-10-21T05:21:31.355Z,99.99
2017-10-21T05:22:31.356Z,99.99
2017-10-21T05:23:31.038Z,99.99
2017-10-21T05:24:31.352Z,99.99
2017-10-21T05:25:31.356Z,99.99
2017-10-21T05:26:31.351Z,99.99
2017-10-21T05:27:31.348Z,99.99
2017-10-21T05:28:31.027Z,99.99
2017-10-21T05:29:31.023Z,99.99
2017-10-21T05:30:31.344Z,99.99
2017-10-21T05:31:31.343Z,99.99
2017-10-21T05:32:31.339Z,99.99
2017-10-21T05:33:31.031Z,99.99
2017-10-21T05:34:31.336Z,99.99
2017-10-21T05:35:31.014Z,99.99
2017-10-21T05:36:31.013Z,99.99
2017-10-21T05:37:31.337Z,99.99
2017-10-21T05:38:31.332Z,99.99
2017-10-21T05:39:31.006Z,99.99
2017-10-21T05:40:31.329Z,99.99
2017-10-21T05:41:31.010Z,99.99
2017-10-21T05:42:31.009Z,99.99
2017-10-21T05:43:31.341Z,99.99
2017-10-21T05:44:31.003Z,99.99
2017-10-21T05:45:31.326Z,99.99
2017-10-21T05:46:30.999Z,99.99
2017-10-21T05:47:31.008Z,99.99
2017-10-21T05:48:31.005Z,99.99
2017-10-21T05:49:33.047Z,99.99
2017-10-21T05:50:31.325Z,99.99
2017-10-21T05:51:31.322Z,99.99
2017-10-21T05:52:31.321Z,99.99
2017-10-21T05:53:31.309Z,99.99
2017-10-21T05:54:31.320Z,99.99
2017-10-21T05:55:31.306Z,99.99
2017-10-21T05:56:31.304Z,99.99
2017-10-21T05:57:31.307Z,99.99
2017-10-21T05:58:31.310Z,99.99
2017-10-21T05:59:31.299Z,99.99
2017-10-21T06:00:30.984Z,99.99
2017-10-21T06:01:31.307Z,99.99
2017-10-21T06:02:31.303Z,99.99
2017-10-21T06:03:31.304Z,99.99
2017-10-21T06:04:31.309Z,99.99
2017-10-21T06:05:31.292Z,99.99
2017-10-21T06:06:31.302Z,99.99
2017-10-21T06:07:30.989Z,99.99
2017-10-21T06:08:31.297Z,99.99
2017-10-21T06:09:31.319Z,99.99
2017-10-21T06:10:31.302Z,99.99
2017-10-21T06:11:31.302Z,99.99
2017-10-21T06:12:31.287Z,99.99
2017-10-21T06:13:31.284Z,99.99
2017-10-21T06:14:31.282Z,99.99
2017-10-21T06:15:31.290Z,99.99
2017-10-21T06:16:30.966Z,99.99
2017-10-21T06:17:30.984Z,99.99
2017-10-21T06:18:30.966Z,99.99
2017-10-21T06:19:31.735Z,99.99
2017-10-21T06:20:31.279Z,99.99
2017-10-21T06:21:30.973Z,99.99
2017-10-21T06:22:30.954Z,99.99
2017-10-21T06:23:31.263Z,99.99
2017-10-21T06:24:31.265Z,99.99
2017-10-21T06:25:31.266Z,99.99
2017-10-21T06:26:30.950Z,99.99
2017-10-21T06:27:30.956Z,99.99
2017-10-21T06:28:31.257Z,99.99
2017-10-21T06:29:30.952Z,99.99
2017-10-21T06:30:31.255Z,99.99
2017-10-21T06:31:30.939Z,99.99
2017-10-21T06:32:30.941Z,99.99
2017-10-21T06:33:30.946Z,99.99
2017-10-21T06:34:32.508Z,99.99
2017-10-21T06:35:30.930Z,99.99
2017-10-21T06:36:30.931Z,99.99
2017-10-21T06:37:31.252Z,99.99
2017-10-21T06:38:30.934Z,99.99
2017-10-21T06:39:31.239Z,99.99
2017-10-21T06:40:30.920Z,99.99
2017-10-21T06:41:30.977Z,99.99
2017-10-21T06:42:30.923Z,99.99
2017-10-21T06:43:31.244Z,99.99
2017-10-21T06:44:31.248Z,99.99
2017-10-21T06:45:31.245Z,99.99
2017-10-21T06:46:31.233Z,99.99
2017-10-21T06:47:31.237Z,99.99
2017-10-21T06:48:30.924Z,99.99
2017-10-21T06:49:31.244Z,99.99
2017-10-21T06:50:30.923Z,99.99
2017-10-21T06:51:31.256Z,99.99
2017-10-21T06:52:30.926Z,99.99
2017-10-21T06:53:31.225Z,99.99
2017-10-21T06:54:31.270Z,99.99
2017-10-21T06:55:30.929Z,99.99
2017-10-21T06:56:30.909Z,99.99
2017-10-21T06:57:31.229Z,99.99
2017-10-21T06:58:30.921Z,99.99
2017-10-21T06:59:30.933Z,99.99
2017-10-21T07:00:30.912Z,99.99
2017-10-21T07:01:31.230Z,99.99
2017-10-21T07:02:31.232Z,99.99
2017-10-21T07:03:31.227Z,99.99
2017-10-21T07:04:31.224Z,99.99
2017-10-21T07:05:31.268Z,99.91
2017-10-21T07:06:31.226Z,98.14
2017-10-21T07:07:31.239Z,95.79
2017-10-21T07:08:31.228Z,95.03
2017-10-21T07:09:30.907Z,94.45
2017-10-21T07:10:30.913Z,93.49
2017-10-21T07:11:30.914Z,92.2
2017-10-21T07:12:31.235Z,91.53
2017-10-21T07:13:30.913Z,91.53
2017-10-21T07:14:31.225Z,91.34
2017-10-21T07:15:31.217Z,91.34
2017-10-21T07:16:31.225Z,91.53
2017-10-21T07:17:31.221Z,91.53
2017-10-21T07:18:31.229Z,90.47
2017-10-21T07:19:30.911Z,90.19
2017-10-21T07:20:33.077Z,89.61
2017-10-21T07:21:31.227Z,88.41
2017-10-21T07:22:31.231Z,88.22
2017-10-21T07:23:31.248Z,88.51
2017-10-21T07:24:31.231Z,88.6
2017-10-21T07:25:31.243Z,89.8
2017-10-21T07:26:30.926Z,91.14
2017-10-21T07:27:31.247Z,91.53
2017-10-21T07:28:31.244Z,92.44
2017-10-21T07:29:30.920Z,93.21
2017-10-21T07:30:31.243Z,94.74
2017-10-21T07:31:30.925Z,95.36
2017-10-21T07:32:31.248Z,95.75
2017-10-21T07:33:31.245Z,96.03
2017-10-21T07:34:30.918Z,97.09
2017-10-21T07:35:30.927Z,98.33
2017-10-21T07:36:31.256Z,98.43
2017-10-21T07:37:31.249Z,97.47
2017-10-21T07:38:31.244Z,96.51
2017-10-21T07:39:30.983Z,96.32
2017-10-21T07:40:31.245Z,95.46
2017-10-21T07:41:30.962Z,93.98
2017-10-21T07:42:30.929Z,93.69
2017-10-21T07:43:30.920Z,92.73
2017-10-21T07:44:31.266Z,91.91
2017-10-21T07:45:30.924Z,90.47
2017-10-21T07:46:31.243Z,90.28
2017-10-21T07:47:31.237Z,89.9
2017-10-21T07:48:31.249Z,88.98
2017-10-21T07:49:30.938Z,88.22
2017-10-21T07:50:36.208Z,87.84
2017-10-21T07:51:31.263Z,88.22
2017-10-21T07:52:30.957Z,88.51
2017-10-21T07:53:30.976Z,88.12
2017-10-21T07:54:31.379Z,87.45
2017-10-21T07:55:31.312Z,86.82
2017-10-21T07:56:31.310Z,86.34
2017-10-21T07:57:31.276Z,86.15
2017-10-21T07:58:31.327Z,86.05
2017-10-21T07:59:31.312Z,86.54
2017-10-21T08:00:31.361Z,87.74
2017-10-21T08:01:31.411Z,88.41
2017-10-21T08:02:31.331Z,86.68
2017-10-21T08:03:31.035Z,85.86
2017-10-21T08:04:31.296Z,84.37
2017-10-21T08:05:31.256Z,83.12
2017-10-21T08:06:31.308Z,82.84
2017-10-21T08:07:31.264Z,82.87
2017-10-21T08:08:30.960Z,80.47
2017-10-21T08:09:30.967Z,79.07
2017-10-21T08:10:30.945Z,78.34
2017-10-21T08:11:31.273Z,77.67
2017-10-21T08:12:31.273Z,76.94
2017-10-21T08:13:30.964Z,76.07
2017-10-21T08:14:30.989Z,77.09
2017-10-21T08:15:30.971Z,78.63
2017-10-21T08:16:30.969Z,80.42
2017-10-21T08:17:30.970Z,82.4
2017-10-21T08:18:31.292Z,83.51
2017-10-21T08:19:31.290Z,85.04
2017-10-21T08:20:30.991Z,85.48
2017-10-21T08:21:32.454Z,86.72
2017-10-21T08:22:30.992Z,86.92
2017-10-21T08:23:30.985Z,87.84
2017-10-21T08:24:31.307Z,87.55
2017-10-21T08:25:30.992Z,88.22
2017-10-21T08:26:30.991Z,88.41
2017-10-21T08:27:31.312Z,88.79
2017-10-21T08:28:30.999Z,88.6
2017-10-21T08:29:31.322Z,89.27
2017-10-21T08:30:31.319Z,89.37
2017-10-21T08:31:31.319Z,89.85
2017-10-21T08:32:31.005Z,90.33
2017-10-21T08:33:31.325Z,90.23
2017-10-21T08:34:31.327Z,90.52
2017-10-21T08:35:31.328Z,90.95
2017-10-21T08:36:31.331Z,90.67
2017-10-21T08:37:31.334Z,90.95
2017-10-21T08:38:31.018Z,90.86
2017-10-21T08:39:31.340Z,91.24
2017-10-21T08:40:31.019Z,91.14
2017-10-21T08:41:31.017Z,91.05
2017-10-21T08:42:31.339Z,91.91
2017-10-21T08:43:31.020Z,91.82
2017-10-21T08:44:31.018Z,92.3
2017-10-21T08:45:31.343Z,91.72
2017-10-21T08:46:31.340Z,91.72
2017-10-21T08:47:31.041Z,91.53
2017-10-21T08:48:31.035Z,91.24
2017-10-21T08:49:31.371Z,91.43
2017-10-21T08:50:31.345Z,91.24
2017-10-21T08:51:34.598Z,91.77
2017-10-21T08:52:31.042Z,91.28
2017-10-21T08:53:31.348Z,90.52
2017-10-21T08:54:31.368Z,90.33
2017-10-21T08:55:31.348Z,90.42
2017-10-21T08:56:31.041Z,90.28
2017-10-21T08:57:31.052Z,89.99
2017-10-21T08:58:31.049Z,90.33
2017-10-21T08:59:31.032Z,89.7
2017-10-21T09:00:31.401Z,90.18
2017-10-21T09:01:31.375Z,90.28
2017-10-21T09:02:31.358Z,90.37
2017-10-21T09:03:31.367Z,89.41
2017-10-21T09:04:31.048Z,89.41
2017-10-21T09:05:31.370Z,89.32
2017-10-21T09:06:31.372Z,89.7
2017-10-21T09:07:31.365Z,88.98
2017-10-21T09:08:31.100Z,89.17
2017-10-21T09:09:31.051Z,87.54
2017-10-21T09:10:31.368Z,86.91
2017-10-21T09:11:31.372Z,85.75
2017-10-21T09:12:31.374Z,84.64
2017-10-21T09:13:31.371Z,83.69
2017-10-21T09:14:31.061Z,83.15
2017-10-21T09:15:31.378Z,83.2
2017-10-21T09:16:31.379Z,83.06
2017-10-21T09:17:31.381Z,82.38
2017-10-21T09:18:31.062Z,82.38
2017-10-21T09:19:31.389Z,81.71
2017-10-21T09:20:31.396Z,81.81
2017-10-21T09:21:31.388Z,81.61
2017-10-21T09:22:31.394Z,82.09
2017-10-21T09:23:31.395Z,82.09
2017-10-21T09:24:31.394Z,81.9
2017-10-21T09:25:31.079Z,82.29
2017-10-21T09:26:31.081Z,82.57
2017-10-21T09:27:31.081Z,82.29
2017-10-21T09:28:31.407Z,82.48
2017-10-21T09:29:31.085Z,81.52
2017-10-21T09:30:31.409Z,80.65
2017-10-21T09:31:31.099Z,79.98
2017-10-21T09:32:31.108Z,79.3
2017-10-21T09:33:31.414Z,78.92
2017-10-21T09:34:31.429Z,79.02
2017-10-21T09:35:31.422Z,78.63
2017-10-21T09:36:31.426Z,78.15
2017-10-21T09:37:31.426Z,77.58
2017-10-21T09:38:31.428Z,77.19
2017-10-21T09:39:31.115Z,76.9
2017-10-21T09:40:31.112Z,76.9
2017-10-21T09:41:31.436Z,76.94
2017-10-21T09:42:31.438Z,76.65
2017-10-21T09:43:31.119Z,76.26
2017-10-21T09:44:31.439Z,75.31
2017-10-21T09:45:31.442Z,75.4
2017-10-21T09:46:31.447Z,75.15
2017-10-21T09:47:31.451Z,74.29
2017-10-21T09:48:31.451Z,74.09
2017-10-21T09:49:31.453Z,74.19
2017-10-21T09:50:31.142Z,73.8
2017-10-21T09:51:31.461Z,73.42
2017-10-21T09:52:33.212Z,72.84
2017-10-21T09:53:31.470Z,73.03
2017-10-21T09:54:31.153Z,73.22
2017-10-21T09:55:31.470Z,73.42
2017-10-21T09:56:31.479Z,72.88
2017-10-21T09:57:31.218Z,72.88
2017-10-21T09:58:31.546Z,72.49
2017-10-21T09:59:31.480Z,72.68
2017-10-21T10:00:31.484Z,72.11
2017-10-21T10:01:31.167Z,72.01
2017-10-21T10:02:31.168Z,71.72
2017-10-21T10:03:31.491Z,72.24
2017-10-21T10:04:31.184Z,72.05
2017-10-21T10:05:31.181Z,72.3
2017-10-21T10:06:31.503Z,71.85
2017-10-21T10:07:31.187Z,71.47
2017-10-21T10:08:31.536Z,71.28
2017-10-21T10:09:31.189Z,71.28
2017-10-21T10:10:31.514Z,71.08
2017-10-21T10:11:31.197Z,71.56
2017-10-21T10:12:32.320Z,72.43
2017-10-21T10:13:31.201Z,70.89
2017-10-21T10:14:31.559Z,70.31
2017-10-21T10:15:31.206Z,70.31
2017-10-21T10:16:31.566Z,69.93
2017-10-21T10:17:31.215Z,70.7
2017-10-21T10:18:31.543Z,69.83
2017-10-21T10:19:31.221Z,69.15
2017-10-21T10:20:31.542Z,68.99
2017-10-21T10:21:31.552Z,69.77
2017-10-21T10:22:31.554Z,69.19
2017-10-21T10:23:31.551Z,68.9
2017-10-21T10:24:31.561Z,68.32
2017-10-21T10:25:31.556Z,67.65
2017-10-21T10:26:31.564Z,67.84
2017-10-21T10:27:31.564Z,67.2
2017-10-21T10:28:31.248Z,66.62
2017-10-21T10:29:31.251Z,66.24
2017-10-21T10:30:31.587Z,66.14
2017-10-21T10:31:31.581Z,66.14
2017-10-21T10:32:31.318Z,66.43
2017-10-21T10:33:31.591Z,66.14
2017-10-21T10:34:31.598Z,66.24
2017-10-21T10:35:31.598Z,65.08
2017-10-21T10:36:31.638Z,65.75
2017-10-21T10:37:31.278Z,65.85
2017-10-21T10:38:31.624Z,65.27
2017-10-21T10:39:31.607Z,65.75
2017-10-21T10:40:31.617Z,65.75
2017-10-21T10:41:31.615Z,65.85
2017-10-21T10:42:31.621Z,66.43
2017-10-21T10:43:31.629Z,66.62
2017-10-21T10:44:31.624Z,66.43
2017-10-21T10:45:31.630Z,66.04
2017-10-21T10:46:31.312Z,65.95
2017-10-21T10:47:31.632Z,65.27
2017-10-21T10:48:31.319Z,64.63
2017-10-21T10:49:31.645Z,64.53
2017-10-21T10:50:31.335Z,64.72
2017-10-21T10:51:31.344Z,64.15
2017-10-21T10:52:31.657Z,64.43
2017-10-21T10:53:31.663Z,64.86
2017-10-21T10:54:31.673Z,64.37
2017-10-21T10:55:31.693Z,63.98
2017-10-21T10:56:31.672Z,63.31
2017-10-21T10:57:31.685Z,63.4
2017-10-21T10:58:32.963Z,63.4
2017-10-21T10:59:31.686Z,62.34
2017-10-21T11:00:31.692Z,62.82
2017-10-21T11:01:31.368Z,63.28
2017-10-21T11:02:31.369Z,63.95
2017-10-21T11:03:31.714Z,63.67
2017-10-21T11:04:31.717Z,63.31
2017-10-21T11:05:31.392Z,63.79
2017-10-21T11:06:31.411Z,63.4
2017-10-21T11:07:31.734Z,63.18
2017-10-21T11:08:31.730Z,62.34
2017-10-21T11:09:31.401Z,62.54
2017-10-21T11:10:31.412Z,63.6
2017-10-21T11:11:31.756Z,64.53
2017-10-21T11:12:31.873Z,64.34
2017-10-21T11:13:31.754Z,62.99
2017-10-21T11:14:31.757Z,62.99
2017-10-21T11:15:31.759Z,62.99
2017-10-21T11:16:31.763Z,63.18
2017-10-21T11:17:31.432Z,63.95
2017-10-21T11:18:31.773Z,63.67
2017-10-21T11:19:31.438Z,63.28
2017-10-21T11:20:31.444Z,62.99
2017-10-21T11:21:31.450Z,63.18
2017-10-21T11:22:31.784Z,63.37
2017-10-21T11:23:34.162Z,63.21
2017-10-21T11:24:31.801Z,62.73
2017-10-21T11:25:31.804Z,62.15
2017-10-21T11:26:31.811Z,61.67
2017-10-21T11:27:31.848Z,62.34
2017-10-21T11:28:31.481Z,62.34
2017-10-21T11:29:31.480Z,62.34
2017-10-21T11:30:31.833Z,62.25
2017-10-21T11:31:31.824Z,61.77
2017-10-21T11:32:31.847Z,62.25
2017-10-21T11:33:31.499Z,62.34
2017-10-21T11:34:31.503Z,61.86
2017-10-21T11:35:31.840Z,62.44
2017-10-21T11:36:31.855Z,62.44
2017-10-21T11:37:31.857Z,62.22
2017-10-21T11:38:31.871Z,63.37
2017-10-21T11:39:31.882Z,63.18
2017-10-21T11:40:31.875Z,63.85
2017-10-21T11:41:31.870Z,63.95
2017-10-21T11:42:31.530Z,63.82
2017-10-21T11:43:31.876Z,63.92
2017-10-21T11:44:31.878Z,63.67
2017-10-21T11:45:31.542Z,63.76
2017-10-21T11:46:31.549Z,63.47
2017-10-21T11:47:31.878Z,62.99
2017-10-21T11:48:31.957Z,62.6
2017-10-21T11:49:31.927Z,62.6
2017-10-21T11:50:31.570Z,62.41
2017-10-21T11:51:31.568Z,61.93
2017-10-21T11:52:31.920Z,62.51
2017-10-21T11:53:31.585Z,63.28
2017-10-21T11:54:31.914Z,63.57
2017-10-21T11:55:31.924Z,63.67
2017-10-21T11:56:31.909Z,64.24
2017-10-21T11:57:31.587Z,63.95
2017-10-21T11:58:31.601Z,64.59
2017-10-21T11:59:31.607Z,64.89
2017-10-21T12:00:31.953Z,64.69
2017-10-21T12:01:31.952Z,64.98
2017-10-21T12:02:31.942Z,65.47
2017-10-21T12:03:31.967Z,65.27
2017-10-21T12:04:31.951Z,65.37
2017-10-21T12:05:31.620Z,65.56
2017-10-21T12:06:31.957Z,65.08
2017-10-21T12:07:31.979Z,65.27
2017-10-21T12:08:31.632Z,65.08
2017-10-21T12:09:31.638Z,65.47
2017-10-21T12:10:31.986Z,65.08
2017-10-21T12:11:31.982Z,65.17
2017-10-21T12:12:32.027Z,66.04
2017-10-21T12:13:31.976Z,66.39
2017-10-21T12:14:31.987Z,66.49
2017-10-21T12:15:31.649Z,65.72
2017-10-21T12:16:31.652Z,66.2
2017-10-21T12:17:31.994Z,66.78
2017-10-21T12:18:32.002Z,66.39
2017-10-21T12:19:32.016Z,66.49
2017-10-21T12:20:31.669Z,67.07
2017-10-21T12:21:32.010Z,67.26
2017-10-21T12:22:32.026Z,67.55
2017-10-21T12:23:31.675Z,67.26
2017-10-21T12:24:32.054Z,67.13
2017-10-21T12:25:32.049Z,67.52
2017-10-21T12:26:32.010Z,67.65
2017-10-21T12:27:32.021Z,67.74
2017-10-21T12:28:31.692Z,67.84
2017-10-21T12:29:32.039Z,67.74
2017-10-21T12:30:32.030Z,67.71
2017-10-21T12:31:31.703Z,67.81
2017-10-21T12:32:32.028Z,67.46
2017-10-21T12:33:32.042Z,67.36
2017-10-21T12:34:32.049Z,67.46
2017-10-21T12:35:32.038Z,67.26
2017-10-21T12:36:31.721Z,66.88
2017-10-21T12:37:32.059Z,66.2
2017-10-21T12:38:32.046Z,65.72
2017-10-21T12:39:32.056Z,66.24
2017-10-21T12:40:32.084Z,66.3
2017-10-21T12:41:32.068Z,66.2
2017-10-21T12:42:31.734Z,66.04
2017-10-21T12:43:31.745Z,65.95
2017-10-21T12:44:31.748Z,65.91
2017-10-21T12:45:32.069Z,66.2
2017-10-21T12:46:32.073Z,66.24
2017-10-21T12:47:32.080Z,66.62
2017-10-21T12:48:32.080Z,66.72
2017-10-21T12:49:32.077Z,66.72
2017-10-21T12:50:31.768Z,66.52
2017-10-21T12:51:32.219Z,66.62
2017-10-21T12:52:31.784Z,66.33
2017-10-21T12:53:32.088Z,66.04